Time;durP1;ratioP1;P1;durP2;ratioP2;P2;SDS_P1;SDS_P2;PMS_P1;PMS_P2;Temp;Humidity;BMP_temperature;BMP_pressure;BME280_temperature;BME280_humidity;BME280_pressure;Samples;Min_cycle;Max_cycle;Signal;HPM_P1;HPM_P2
2021/09/16 00:00:07;;;;;;;2.43;2.33;;;17.90;99.90;;;;;;4979752;28;20439;-68
2021/09/16 00:02:32;;;;;;;7.50;3.47;;;17.90;99.90;;;;;;4973070;28;20235;-68
2021/09/16 00:04:58;;;;;;;4.10;2.37;;;17.80;99.90;;;;;;4972907;28;20485;-68
2021/09/16 00:07:23;;;;;;;2.80;2.60;;;17.80;99.90;;;;;;4972649;28;20255;-68
2021/09/16 00:09:49;;;;;;;2.60;2.40;;;17.90;99.90;;;;;;4980091;28;20661;-67
2021/09/16 00:12:15;;;;;;;3.90;2.70;;;17.90;99.90;;;;;;4996396;28;20196;-68
2021/09/16 00:14:40;;;;;;;2.17;2.07;;;18.00;99.90;;;;;;4995852;28;20176;-67
2021/09/16 00:17:06;;;;;;;5.23;3.23;;;18.00;99.90;;;;;;4994353;28;20188;-67
2021/09/16 00:19:31;;;;;;;2.10;1.90;;;18.10;99.90;;;;;;4995353;28;20179;-68
2021/09/16 00:21:57;;;;;;;2.63;2.43;;;18.00;99.90;;;;;;4995748;28;20211;-67
2021/09/16 00:24:22;;;;;;;2.57;2.30;;;17.90;99.90;;;;;;4996148;28;20184;-67
2021/09/16 00:26:48;;;;;;;2.23;2.03;;;17.90;99.90;;;;;;4994343;28;20206;-68
2021/09/16 00:29:14;;;;;;;3.53;2.60;;;17.90;99.90;;;;;;4995433;28;20190;-68
2021/09/16 00:31:40;;;;;;;2.53;2.10;;;18.00;99.90;;;;;;4995342;28;20167;-67
2021/09/16 00:34:06;;;;;;;2.63;2.43;;;18.00;99.90;;;;;;4995055;28;20434;-67
2021/09/16 00:36:31;;;;;;;2.80;2.60;;;18.10;99.90;;;;;;4996031;28;20608;-67
2021/09/16 00:38:57;;;;;;;3.13;2.47;;;18.20;99.90;;;;;;4995692;28;20461;-67
2021/09/16 00:41:22;;;;;;;2.57;2.37;;;18.20;99.90;;;;;;4990633;28;20590;-67
2021/09/16 00:43:49;;;;;;;2.97;2.77;;;18.20;99.90;;;;;;4976513;28;20188;-68
2021/09/16 00:46:14;;;;;;;2.63;2.07;;;18.10;99.90;;;;;;4976187;28;20248;-68
2021/09/16 00:48:40;;;;;;;2.10;1.80;;;18.10;99.90;;;;;;4976007;28;20553;-68
2021/09/16 00:51:06;;;;;;;3.00;2.23;;;18.10;99.90;;;;;;4977015;28;20173;-68
2021/09/16 00:53:32;;;;;;;1.97;1.80;;;18.20;99.90;;;;;;4989692;28;20200;-68
2021/09/16 00:55:59;;;;;;;5.03;2.30;;;18.10;99.90;;;;;;4976003;28;20263;-67
2021/09/16 00:58:27;;;;;;;2.93;2.30;;;18.00;99.90;;;;;;4976110;28;20995;-68
2021/09/16 01:00:55;;;;;;;2.47;2.37;;;18.00;99.90;;;;;;4980970;28;20923;-67
2021/09/16 01:03:21;;;;;;;2.20;2.10;;;17.90;99.90;;;;;;4995405;28;20470;-67
2021/09/16 01:05:48;;;;;;;2.50;2.17;;;17.90;99.90;;;;;;4995363;28;20928;-68
2021/09/16 01:08:14;;;;;;;3.77;2.77;;;17.80;99.90;;;;;;4994413;28;20488;-67
2021/09/16 01:10:40;;;;;;;2.97;2.70;;;17.80;99.90;;;;;;4995371;28;20419;-68
2021/09/16 01:13:09;;;;;;;3.00;2.57;;;17.80;99.90;;;;;;4995557;28;20199;-68
2021/09/16 01:15:35;;;;;;;2.20;1.97;;;17.70;99.90;;;;;;4993600;28;20175;-68
2021/09/16 01:18:00;;;;;;;3.07;2.87;;;17.70;99.90;;;;;;4994806;28;20779;-67
2021/09/16 01:20:26;;;;;;;2.43;2.23;;;17.70;99.90;;;;;;4992945;28;20184;-68
2021/09/16 01:22:52;;;;;;;3.60;3.30;;;17.80;99.90;;;;;;4995043;28;20274;-68
2021/09/16 01:25:17;;;;;;;8.93;2.60;;;17.80;99.90;;;;;;4991687;28;20172;-68
2021/09/16 01:27:45;;;;;;;2.67;2.47;;;17.90;99.90;;;;;;4975126;28;20463;-68
2021/09/16 01:30:11;;;;;;;2.57;2.37;;;17.90;99.90;;;;;;4990331;28;20210;-67
2021/09/16 01:32:37;;;;;;;2.20;2.10;;;17.90;99.90;;;;;;4987331;28;20956;-68
2021/09/16 01:35:03;;;;;;;2.50;2.30;;;17.80;99.90;;;;;;4994606;28;20262;-68
2021/09/16 01:37:28;;;;;;;2.80;2.07;;;17.80;99.90;;;;;;4994195;28;20180;-67
2021/09/16 01:39:53;;;;;;;2.23;2.03;;;17.90;99.90;;;;;;4993144;28;20201;-67
2021/09/16 01:42:19;;;;;;;4.20;2.50;;;17.90;99.90;;;;;;4994755;28;20199;-68
2021/09/16 01:44:46;;;;;;;3.13;2.87;;;17.80;99.90;;;;;;4993440;28;20218;-68
2021/09/16 01:47:12;;;;;;;2.73;2.30;;;17.70;99.90;;;;;;4993948;28;20298;-68
2021/09/16 01:49:37;;;;;;;5.50;3.53;;;17.70;99.90;;;;;;4986832;28;20865;-67
2021/09/16 01:52:03;;;;;;;2.43;2.23;;;17.80;99.90;;;;;;4975120;28;20320;-67
2021/09/16 01:54:29;;;;;;;2.37;1.80;;;17.80;99.90;;;;;;4974933;28;20191;-68
2021/09/16 01:56:54;;;;;;;2.70;2.50;;;17.90;99.90;;;;;;4975130;28;20510;-67
2021/09/16 01:59:20;;;;;;;4.07;2.20;;;18.00;99.90;;;;;;4974636;28;20614;-68
2021/09/16 02:01:46;;;;;;;2.33;2.23;;;18.00;99.90;;;;;;4978653;28;20653;-67
2021/09/16 02:04:11;;;;;;;2.67;2.47;;;18.10;99.90;;;;;;4994390;28;20179;-68
2021/09/16 02:06:37;;;;;;;2.40;2.20;;;18.20;99.90;;;;;;4993882;28;20256;-68
2021/09/16 02:09:03;;;;;;;2.23;2.03;;;18.10;99.90;;;;;;4993623;28;20180;-67
2021/09/16 02:11:28;;;;;;;3.07;2.77;;;18.00;99.90;;;;;;4993873;28;20187;-67
2021/09/16 02:13:54;;;;;;;2.07;1.97;;;18.10;99.90;;;;;;4976590;28;20452;-68
2021/09/16 02:16:19;;;;;;;2.10;2.00;;;18.10;99.90;;;;;;4989537;28;20525;-68
2021/09/16 02:18:45;;;;;;;2.83;2.20;;;18.00;99.90;;;;;;4993542;28;20191;-67
2021/09/16 02:21:10;;;;;;;3.10;2.20;;;17.90;99.90;;;;;;4988539;28;20180;-68
2021/09/16 02:23:36;;;;;;;2.20;2.00;;;18.00;99.90;;;;;;4989687;28;20200;-67
2021/09/16 02:26:01;;;;;;;6.73;2.63;;;18.00;99.90;;;;;;4993682;28;20183;-67
2021/09/16 02:28:27;;;;;;;2.40;2.20;;;18.10;99.90;;;;;;4992706;28;20213;-68
2021/09/16 02:30:52;;;;;;;3.47;1.97;;;18.10;99.90;;;;;;4992826;28;20179;-68
2021/09/16 02:33:18;;;;;;;2.73;2.30;;;18.10;99.90;;;;;;4991241;28;20198;-67
2021/09/16 02:35:43;;;;;;;2.50;2.30;;;18.00;99.90;;;;;;4993645;28;20174;-68
2021/09/16 02:38:09;;;;;;;3.27;2.57;;;17.90;99.90;;;;;;4975207;28;20211;-68
2021/09/16 02:40:34;;;;;;;2.50;2.23;;;17.90;99.90;;;;;;4974292;28;20255;-68
2021/09/16 02:43:00;;;;;;;2.33;2.13;;;18.00;99.90;;;;;;4974109;28;20204;-67
2021/09/16 02:45:25;;;;;;;5.23;2.20;;;18.00;99.90;;;;;;4977743;28;20175;-68
2021/09/16 02:47:51;;;;;;;6.00;2.27;;;18.00;99.90;;;;;;4973516;28;20212;-68
2021/09/16 02:50:16;;;;;;;2.60;2.40;;;18.10;99.90;;;;;;4977922;28;20207;-67
2021/09/16 02:52:42;;;;;;;2.40;2.20;;;18.00;99.90;;;;;;4973718;28;20224;-68
2021/09/16 02:55:08;;;;;;;2.53;2.40;;;17.90;99.90;;;;;;4990779;28;20226;-67
2021/09/16 02:57:34;;;;;;;2.70;2.50;;;17.80;99.90;;;;;;4992945;28;20171;-67
2021/09/16 02:59:59;;;;;;;4.50;2.90;;;17.80;99.90;;;;;;4992616;28;20521;-68
2021/09/16 03:02:25;;;;;;;2.53;2.33;;;17.70;99.90;;;;;;4991447;28;20545;-68
2021/09/16 03:04:50;;;;;;;2.20;2.10;;;17.70;99.90;;;;;;4993212;28;20179;-68
2021/09/16 03:07:16;;;;;;;2.87;2.67;;;17.70;99.90;;;;;;4974699;28;20651;-68
2021/09/16 03:09:41;;;;;;;2.90;2.60;;;17.80;99.90;;;;;;4974765;28;20658;-68
2021/09/16 03:12:07;;;;;;;2.33;2.13;;;17.80;99.90;;;;;;4973641;28;20207;-67
2021/09/16 03:14:33;;;;;;;2.87;2.23;;;17.80;99.90;;;;;;4973574;28;20184;-68
2021/09/16 03:16:58;;;;;;;2.50;2.30;;;17.80;99.90;;;;;;4974524;28;20203;-67
2021/09/16 03:19:24;;;;;;;3.37;2.47;;;17.80;99.90;;;;;;4985041;28;20183;-68
2021/09/16 03:21:49;;;;;;;2.60;2.40;;;17.80;99.90;;;;;;4990052;28;20265;-68
2021/09/16 03:24:15;;;;;;;2.23;2.03;;;17.90;99.90;;;;;;4973501;28;20176;-68
2021/09/16 03:26:40;;;;;;;1.90;1.77;;;18.00;99.90;;;;;;4973507;28;20270;-67
2021/09/16 03:29:06;;;;;;;2.53;2.33;;;18.00;99.90;;;;;;4981175;28;20568;-68
2021/09/16 03:31:31;;;;;;;2.90;2.60;;;18.10;99.90;;;;;;4992132;28;20688;-68
2021/09/16 03:33:57;;;;;;;4.03;3.03;;;18.00;99.90;;;;;;4973497;28;20232;-67
2021/09/16 03:36:22;;;;;;;5.83;2.30;;;18.00;99.90;;;;;;4973338;28;20172;-68
2021/09/16 03:38:48;;;;;;;3.80;2.53;;;18.10;99.90;;;;;;4978955;28;20183;-68
2021/09/16 03:41:13;;;;;;;3.00;2.30;;;18.00;99.90;;;;;;4992427;28;20271;-67
2021/09/16 03:43:39;;;;;;;4.60;3.03;;;17.90;99.90;;;;;;4975334;28;20207;-68
2021/09/16 03:46:04;;;;;;;2.53;2.33;;;17.80;99.90;;;;;;4973096;28;20180;-68
2021/09/16 03:48:30;;;;;;;3.00;2.80;;;17.80;99.90;;;;;;4973212;28;20629;-68
2021/09/16 03:50:55;;;;;;;2.57;2.40;;;17.80;99.90;;;;;;4974174;28;20175;-68
2021/09/16 03:53:21;;;;;;;3.03;2.37;;;17.70;99.90;;;;;;4973412;28;20579;-68
2021/09/16 03:55:47;;;;;;;3.03;2.73;;;17.70;99.90;;;;;;4973214;28;20169;-66
2021/09/16 03:58:13;;;;;;;3.00;2.80;;;17.60;99.90;;;;;;4987585;28;20674;-68
2021/09/16 04:00:38;;;;;;;2.77;2.53;;;17.50;99.90;;;;;;4994341;23;20596;-67
2021/09/16 04:03:08;;;;;;;3.20;2.97;;;17.50;99.90;;;;;;4961330;28;20432;-67
2021/09/16 04:05:34;;;;;;;5.23;3.00;;;17.60;99.90;;;;;;4953739;29;20177;-67
2021/09/16 04:08:00;;;;;;;2.53;2.33;;;17.50;99.90;;;;;;4954851;28;20460;-67
2021/09/16 04:10:25;;;;;;;3.10;2.70;;;17.60;99.90;;;;;;4972611;28;20824;-67
2021/09/16 04:12:51;;;;;;;3.27;2.97;;;17.60;99.90;;;;;;4972773;28;20206;-67
2021/09/16 04:15:16;;;;;;;4.50;3.10;;;17.70;99.90;;;;;;4972953;28;20224;-67
2021/09/16 04:17:42;;;;;;;2.57;2.37;;;17.70;99.90;;;;;;4972106;28;20192;-67
2021/09/16 04:20:08;;;;;;;2.50;2.30;;;17.90;99.90;;;;;;4963477;28;20219;-67
2021/09/16 04:22:34;;;;;;;6.80;2.70;;;17.90;99.90;;;;;;4954653;28;20267;-67
2021/09/16 04:24:59;;;;;;;2.23;2.10;;;17.80;99.90;;;;;;4954691;28;20464;-67
2021/09/16 04:27:25;;;;;;;3.00;2.80;;;17.70;99.90;;;;;;4953186;28;20196;-67
2021/09/16 04:29:50;;;;;;;3.40;3.10;;;17.70;99.90;;;;;;4953379;28;20232;-67
2021/09/16 04:32:16;;;;;;;2.90;2.60;;;17.70;99.90;;;;;;4954529;28;20216;-67
2021/09/16 04:34:41;;;;;;;2.60;2.40;;;17.60;99.90;;;;;;4963766;28;20260;-67
2021/09/16 04:37:07;;;;;;;3.37;3.07;;;17.60;99.90;;;;;;4971436;28;20552;-67
2021/09/16 04:39:33;;;;;;;2.90;2.70;;;17.60;99.90;;;;;;4965743;28;20204;-67
2021/09/16 04:41:59;;;;;;;6.30;2.93;;;17.60;99.90;;;;;;4953514;29;20176;-67
2021/09/16 04:44:24;;;;;;;2.90;2.70;;;17.50;99.90;;;;;;4959153;28;20435;-66
2021/09/16 04:46:50;;;;;;;3.50;3.20;;;17.50;99.90;;;;;;4972201;28;20699;-66
2021/09/16 04:49:15;;;;;;;4.87;3.70;;;17.40;99.90;;;;;;4954390;28;20209;-66
2021/09/16 04:51:41;;;;;;;2.80;2.60;;;17.40;99.90;;;;;;4956940;28;20208;-67
2021/09/16 04:54:07;;;;;;;4.40;3.30;;;17.40;99.90;;;;;;4952827;28;20200;-67
2021/09/16 04:56:33;;;;;;;5.30;3.10;;;17.40;99.90;;;;;;4956885;29;20256;-67
2021/09/16 04:58:59;;;;;;;4.90;3.30;;;17.40;99.90;;;;;;4956412;29;20986;-67
2021/09/16 05:01:25;;;;;;;4.63;3.20;;;17.50;99.90;;;;;;4956913;29;20499;-67
2021/09/16 05:03:50;;;;;;;3.37;3.07;;;17.50;99.90;;;;;;4956684;29;20192;-67
2021/09/16 05:06:16;;;;;;;5.30;2.97;;;17.50;99.90;;;;;;4956827;29;20185;-67
2021/09/16 05:08:42;;;;;;;4.53;3.77;;;17.60;99.90;;;;;;4956426;29;20200;-67
2021/09/16 05:11:08;;;;;;;3.67;3.37;;;17.50;99.90;;;;;;4957352;29;20279;-68
2021/09/16 05:13:34;;;;;;;6.27;3.50;;;17.60;99.90;;;;;;4957233;29;20417;-67
2021/09/16 05:15:59;;;;;;;2.97;2.73;;;17.60;99.90;;;;;;4956338;29;20436;-67
2021/09/16 05:18:25;;;;;;;4.40;3.80;;;17.50;99.90;;;;;;4956432;29;20197;-67
2021/09/16 05:20:51;;;;;;;6.07;3.73;;;17.50;99.90;;;;;;4938951;29;20205;-67
2021/09/16 05:23:16;;;;;;;6.20;4.00;;;17.40;99.90;;;;;;4957050;29;20192;-67
2021/09/16 05:25:42;;;;;;;6.00;4.00;;;17.30;99.90;;;;;;4956603;29;20622;-67
2021/09/16 05:28:07;;;;;;;4.17;3.77;;;17.30;99.90;;;;;;4955796;29;20291;-67
2021/09/16 05:30:33;;;;;;;4.40;4.00;;;17.20;99.90;;;;;;4956381;29;20193;-67
2021/09/16 05:32:58;;;;;;;6.07;4.43;;;17.20;99.90;;;;;;4956550;29;20203;-67
2021/09/16 05:35:24;;;;;;;5.60;4.80;;;17.20;99.90;;;;;;4959660;28;20562;-67
2021/09/16 05:37:49;;;;;;;5.47;5.07;;;17.20;99.90;;;;;;4955933;29;20665;-67
2021/09/16 05:40:15;;;;;;;9.93;5.33;;;17.20;99.90;;;;;;4956037;29;20561;-67
2021/09/16 05:42:41;;;;;;;4.93;4.53;;;17.30;99.90;;;;;;4971820;28;20642;-67
2021/09/16 05:45:08;;;;;;;6.20;3.90;;;17.30;99.90;;;;;;4955586;29;20440;-67
2021/09/16 05:47:34;;;;;;;5.10;4.20;;;17.30;99.90;;;;;;4955781;29;20196;-67
2021/09/16 05:49:59;;;;;;;8.33;4.10;;;17.30;99.90;;;;;;4965957;28;20558;-67
2021/09/16 05:52:25;;;;;;;5.10;4.00;;;17.30;99.90;;;;;;4958099;28;20176;-67
2021/09/16 05:54:50;;;;;;;5.23;4.63;;;17.20;99.90;;;;;;4973577;28;20714;-67
2021/09/16 05:57:16;;;;;;;8.03;4.90;;;17.30;99.90;;;;;;4974853;28;20176;-64
2021/09/16 05:59:41;;;;;;;4.70;4.30;;;17.40;99.90;;;;;;4970214;28;20209;-64
2021/09/16 06:02:07;;;;;;;5.90;4.17;;;17.40;99.90;;;;;;4956774;28;20276;-64
2021/09/16 06:04:32;;;;;;;15.13;13.33;;;17.40;99.90;;;;;;4955321;29;20256;-64
2021/09/16 06:07:03;;;;;;;9.03;5.90;;;17.50;99.90;;;;;;4955502;28;20201;-64
2021/09/16 06:09:30;;;;;;;4.80;4.40;;;17.50;99.90;;;;;;4955441;29;20271;-64
2021/09/16 06:11:56;;;;;;;4.93;4.53;;;17.50;99.90;;;;;;4954327;29;20564;-64
2021/09/16 06:14:21;;;;;;;4.50;4.07;;;17.70;99.90;;;;;;4955443;29;20508;-64
2021/09/16 06:16:47;;;;;;;5.33;4.60;;;17.80;99.90;;;;;;4955329;29;20177;-64
2021/09/16 06:19:12;;;;;;;7.93;4.80;;;17.90;99.90;;;;;;4954793;29;20569;-65
2021/09/16 06:21:39;;;;;;;10.73;5.67;;;17.80;99.90;;;;;;4955413;28;20177;-64
2021/09/16 06:24:05;;;;;;;6.70;4.97;;;17.80;99.90;;;;;;4958865;28;20171;-64
2021/09/16 06:26:30;;;;;;;5.10;4.60;;;17.80;99.90;;;;;;4955047;29;20523;-64
2021/09/16 06:28:56;;;;;;;5.80;5.30;;;17.90;99.90;;;;;;4958091;28;20200;-64
2021/09/16 06:31:21;;;;;;;5.23;4.73;;;17.90;99.90;;;;;;4955093;29;20180;-65
2021/09/16 06:33:47;;;;;;;5.43;4.93;;;17.90;99.90;;;;;;4955001;29;20177;-65
2021/09/16 06:36:12;;;;;;;5.63;4.60;;;18.00;99.90;;;;;;4954836;29;20181;-65
2021/09/16 06:38:38;;;;;;;4.70;4.30;;;18.00;99.90;;;;;;4954969;29;20232;-65
2021/09/16 06:41:03;;;;;;;4.37;3.80;;;18.10;99.90;;;;;;4954862;29;20225;-64
2021/09/16 06:43:30;;;;;;;5.50;4.40;;;18.00;99.90;;;;;;4954923;29;20264;-64
2021/09/16 06:45:55;;;;;;;9.27;4.63;;;18.10;99.90;;;;;;4937546;29;20568;-64
2021/09/16 06:48:21;;;;;;;5.20;4.07;;;18.10;99.90;;;;;;4954285;29;20456;-64
2021/09/16 06:50:46;;;;;;;6.20;3.83;;;18.20;99.90;;;;;;4961657;28;20196;-64
2021/09/16 06:53:12;;;;;;;6.33;5.23;;;18.20;99.90;;;;;;4952590;28;20180;-64
2021/09/16 06:55:37;;;;;;;4.70;4.30;;;18.10;99.90;;;;;;4953843;29;20558;-64
2021/09/16 06:58:03;;;;;;;5.80;3.53;;;18.20;99.90;;;;;;4966903;28;20188;-64
2021/09/16 07:00:28;;;;;;;5.60;4.93;;;18.30;99.90;;;;;;4936982;28;20231;-64
2021/09/16 07:02:54;;;;;;;5.07;4.57;;;18.30;99.90;;;;;;4955413;28;20185;-64
2021/09/16 07:05:20;;;;;;;7.60;4.93;;;18.30;99.90;;;;;;4954143;29;20610;-64
2021/09/16 07:07:45;;;;;;;9.03;4.53;;;18.40;99.90;;;;;;4954069;29;20283;-64
2021/09/16 07:10:11;;;;;;;6.93;3.97;;;18.40;99.90;;;;;;4954421;29;20644;-64
2021/09/16 07:12:37;;;;;;;6.00;5.07;;;18.40;99.90;;;;;;4954365;29;20193;-64
2021/09/16 07:15:02;;;;;;;6.80;5.40;;;18.40;99.90;;;;;;4955477;28;20252;-65
2021/09/16 07:17:28;;;;;;;4.80;4.40;;;18.30;99.90;;;;;;4953530;28;20187;-64
2021/09/16 07:19:53;;;;;;;7.67;4.90;;;18.30;99.90;;;;;;4954039;29;20670;-64
2021/09/16 07:22:19;;;;;;;4.13;3.83;;;18.30;99.90;;;;;;4953900;29;20181;-65
2021/09/16 07:24:45;;;;;;;4.60;4.30;;;18.30;99.90;;;;;;4954194;29;20179;-64
2021/09/16 07:27:10;;;;;;;7.17;5.93;;;18.30;99.90;;;;;;4954054;29;20251;-64
2021/09/16 07:29:36;;;;;;;5.77;4.20;;;18.30;99.90;;;;;;4956726;28;20203;-64
2021/09/16 07:32:01;;;;;;;5.13;4.60;;;18.30;99.90;;;;;;4959117;28;20204;-65
2021/09/16 07:34:27;;;;;;;5.07;4.60;;;18.30;99.90;;;;;;4954269;29;20173;-65
2021/09/16 07:36:52;;;;;;;4.57;4.27;;;18.30;99.90;;;;;;4953939;29;20183;-64
2021/09/16 07:39:20;;;;;;;4.93;4.43;;;18.30;99.90;;;;;;4953779;29;20244;-65
2021/09/16 07:41:47;;;;;;;4.80;4.40;;;18.30;99.90;;;;;;4954175;29;20173;-65
2021/09/16 07:44:12;;;;;;;3.93;3.60;;;18.30;99.90;;;;;;4954088;29;20511;-64
2021/09/16 07:46:38;;;;;;;5.00;4.40;;;18.40;99.90;;;;;;4953889;29;20506;-65
2021/09/16 07:49:04;;;;;;;3.53;3.23;;;18.40;99.90;;;;;;4953589;29;20208;-64
2021/09/16 07:51:29;;;;;;;4.93;3.30;;;18.30;99.90;;;;;;4954128;29;20169;-65
2021/09/16 07:53:55;;;;;;;3.50;3.20;;;18.30;99.90;;;;;;4954077;29;20165;-66
2021/09/16 07:56:21;;;;;;;3.50;3.30;;;18.20;99.90;;;;;;4954207;29;20173;-66
2021/09/16 07:58:47;;;;;;;3.17;2.80;;;18.10;99.90;;;;;;4965638;28;20330;-65
2021/09/16 08:01:12;;;;;;;3.53;3.10;;;18.00;99.90;;;;;;4972969;28;20211;-65
2021/09/16 08:03:38;;;;;;;2.73;2.53;;;18.00;99.90;;;;;;4965621;28;20953;-65
2021/09/16 08:06:03;;;;;;;3.10;2.90;;;17.90;99.90;;;;;;4954004;29;20220;-64
2021/09/16 08:08:29;;;;;;;2.80;2.60;;;17.90;99.90;;;;;;4953511;29;20203;-65
2021/09/16 08:10:55;;;;;;;4.10;3.77;;;17.90;99.90;;;;;;4957182;28;20671;-65
2021/09/16 08:13:20;;;;;;;3.53;3.23;;;17.80;99.90;;;;;;4953855;29;20177;-64
2021/09/16 08:15:46;;;;;;;3.23;3.00;;;17.90;99.90;;;;;;4953716;29;20177;-64
2021/09/16 08:18:12;;;;;;;5.23;3.40;;;18.00;99.90;;;;;;4963541;28;20188;-63
2021/09/16 08:20:44;;;;;;;3.63;3.43;;;18.10;99.90;;;;;;4954340;28;20450;-63
2021/09/16 08:23:09;;;;;;;2.20;1.97;;;18.10;99.90;;;;;;4953718;29;20208;-62
2021/09/16 08:25:35;;;;;;;3.00;2.73;;;18.10;99.90;;;;;;4953647;29;20862;-63
2021/09/16 08:28:00;;;;;;;3.30;1.40;;;18.00;99.90;;;;;;4953219;29;20201;-64
2021/09/16 08:30:26;;;;;;;1.80;1.70;;;18.10;99.90;;;;;;4955255;28;20267;-64
2021/09/16 08:32:52;;;;;;;1.30;1.20;;;18.00;99.90;;;;;;4957279;29;20181;-64
2021/09/16 08:35:19;;;;;;;2.20;1.40;;;18.00;99.90;;;;;;4950023;28;20956;-64
2021/09/16 08:37:45;;;;;;;3.20;1.23;;;17.90;99.90;;;;;;4953596;29;20219;-64
2021/09/16 08:40:11;;;;;;;1.30;1.20;;;18.00;99.90;;;;;;4953648;29;20484;-64
2021/09/16 08:42:39;;;;;;;0.90;0.90;;;18.00;99.90;;;;;;4953844;29;20427;-64
2021/09/16 08:45:07;;;;;;;1.23;1.13;;;18.10;99.90;;;;;;4953310;29;20428;-64
2021/09/16 08:47:36;;;;;;;1.63;0.90;;;17.90;99.90;;;;;;4953308;29;20482;-64
2021/09/16 08:50:03;;;;;;;0.80;0.80;;;17.80;99.90;;;;;;4953215;29;20460;-64
2021/09/16 08:52:30;;;;;;;1.03;1.03;;;17.90;99.90;;;;;;4953740;29;20475;-64
2021/09/16 08:54:56;;;;;;;0.90;0.90;;;17.90;99.90;;;;;;4953298;29;20479;-64
2021/09/16 08:57:22;;;;;;;1.10;1.00;;;17.80;99.90;;;;;;4952349;28;20487;-64
2021/09/16 08:59:48;;;;;;;1.63;1.13;;;17.80;99.90;;;;;;4960268;28;20996;-65
2021/09/16 09:02:14;;;;;;;1.43;1.17;;;17.90;99.90;;;;;;4972802;28;20790;-65
2021/09/16 09:04:40;;;;;;;1.67;1.57;;;17.90;99.90;;;;;;4952451;28;20535;-65
2021/09/16 09:07:06;;;;;;;1.43;1.10;;;17.80;99.90;;;;;;4954439;28;20209;-65
2021/09/16 09:09:33;;;;;;;1.83;1.60;;;17.70;99.90;;;;;;4952743;28;20833;-65
2021/09/16 09:12:11;;;;;;;1.60;1.50;;;17.60;99.90;;;;;;4933611;29;20505;-64
2021/09/16 09:14:52;;;;;;;1.27;1.17;;;17.60;99.90;;;;;;4933914;29;20874;-64
2021/09/16 09:17:21;;;;;;;3.33;1.97;;;17.50;99.90;;;;;;4966081;28;20534;-64
2021/09/16 09:19:50;;;;;;;1.73;1.63;;;17.50;99.90;;;;;;4972013;28;20521;-65
2021/09/16 09:22:17;;;;;;;1.60;1.50;;;17.50;99.90;;;;;;4971952;28;20972;-65
2021/09/16 09:24:45;;;;;;;2.93;1.53;;;17.40;99.90;;;;;;4971821;28;20458;-65
2021/09/16 09:27:23;;;;;;;2.50;1.40;;;17.40;99.90;;;;;;4952111;28;20499;-65
2021/09/16 09:30:10;;;;;;;2.00;1.90;;;17.40;99.90;;;;;;4955650;28;20448;-65
2021/09/16 09:33:06;;;;;;;15.13;13.23;;;17.40;99.90;;;;;;4952726;29;20432;-64
2021/09/16 09:35:40;;;;;;;1.73;1.63;;;17.50;99.90;;;;;;4936544;29;20444;-64
2021/09/16 09:38:16;;;;;;;2.30;2.20;;;17.50;99.90;;;;;;4952194;29;20594;-64
2021/09/16 09:40:43;;;;;;;2.60;2.10;;;17.50;99.90;;;;;;4952299;28;20479;-64
2021/09/16 09:43:29;;;;;;;2.40;2.27;;;17.50;99.90;;;;;;4952516;29;20440;-65
2021/09/16 09:46:13;;;;;;;2.93;2.73;;;17.40;99.90;;;;;;4952736;29;20436;-64
2021/09/16 09:48:57;;;;;;;4.73;4.23;;;17.40;99.90;;;;;;4952720;29;20530;-64
2021/09/16 09:51:35;;;;;;;5.73;4.00;;;17.30;99.90;;;;;;4954885;28;20872;-64
2021/09/16 09:54:33;;;;;;;4.90;4.50;;;17.40;99.90;;;;;;4933580;29;20432;-65
2021/09/16 09:57:06;;;;;;;4.90;4.50;;;17.50;99.90;;;;;;4932813;29;20445;-65
2021/09/16 09:59:59;;;;;;;5.30;4.80;;;17.60;99.90;;;;;;4975616;23;20462;-68
2021/09/16 10:02:32;;;;;;;5.50;5.00;;;17.70;99.90;;;;;;4941897;29;20515;-68
2021/09/16 10:04:59;;;;;;;6.77;6.17;;;17.70;99.90;;;;;;4954536;29;20441;-66
2021/09/16 10:07:37;;;;;;;6.03;5.50;;;17.80;99.90;;;;;;4944987;29;21026;-66
2021/09/16 10:10:09;;;;;;;7.43;6.83;;;17.80;99.90;;;;;;4954624;28;20456;-66
2021/09/16 10:12:35;;;;;;;8.50;7.60;;;17.70;99.90;;;;;;4955357;29;20496;-65
2021/09/16 10:15:00;;;;;;;7.77;6.77;;;17.80;99.90;;;;;;4955339;29;20454;-66
2021/09/16 10:17:26;;;;;;;8.73;8.03;;;17.80;99.90;;;;;;4954512;29;20527;-66
2021/09/16 10:19:52;;;;;;;8.20;7.50;;;17.80;99.90;;;;;;4936433;29;20549;-66
2021/09/16 10:22:18;;;;;;;8.80;7.90;;;17.90;99.90;;;;;;4935736;29;20186;-66
2021/09/16 10:24:45;;;;;;;8.53;7.83;;;17.90;99.90;;;;;;4936068;29;20433;-66
2021/09/16 10:27:37;;;;;;;10.00;9.20;;;18.10;99.90;;;;;;4935680;29;20512;-64
2021/09/16 10:30:23;;;;;;;9.87;8.97;;;18.20;99.90;;;;;;4935772;29;20458;-65
2021/09/16 10:33:07;;;;;;;10.47;9.50;;;18.30;99.90;;;;;;4935716;29;20428;-65
2021/09/16 10:35:42;;;;;;;9.87;9.07;;;18.40;99.90;;;;;;4941783;29;20952;-65
2021/09/16 10:38:23;;;;;;;10.60;9.50;;;18.70;99.90;;;;;;4954682;29;20431;-66
2021/09/16 10:41:09;;;;;;;12.40;11.30;;;18.70;99.90;;;;;;4954874;28;20444;-64
2021/09/16 10:43:35;;;;;;;12.50;11.37;;;18.70;99.90;;;;;;4950395;29;20452;-66
2021/09/16 10:46:22;;;;;;;12.33;11.20;;;18.50;99.90;;;;;;4935662;29;20911;-65
2021/09/16 10:48:48;;;;;;;13.70;12.50;;;18.20;99.90;;;;;;4935225;29;20457;-66
2021/09/16 10:51:14;;;;;;;14.20;12.90;;;18.20;99.90;;;;;;4935533;29;20457;-65
2021/09/16 10:53:41;;;;;;;16.17;14.57;;;18.30;99.90;;;;;;4934722;29;20166;-65
2021/09/16 10:56:35;;;;;;;15.60;14.20;;;18.10;99.90;;;;;;4935403;29;20264;-63
2021/09/16 10:59:01;;;;;;;16.27;14.57;;;18.00;99.90;;;;;;4935181;29;20430;-63
2021/09/16 11:01:55;;;;;;;16.20;14.60;;;18.10;99.90;;;;;;4934754;29;20465;-64
2021/09/16 11:04:21;;;;;;;17.90;16.13;;;18.00;99.90;;;;;;4932866;29;20197;-65
2021/09/16 11:06:47;;;;;;;18.27;16.63;;;18.00;99.90;;;;;;4934825;29;20472;-65
2021/09/16 11:09:22;;;;;;;19.20;15.00;;;18.20;99.90;;;;;;4934852;29;20464;-66
2021/09/16 11:11:55;;;;;;;16.33;14.63;;;18.10;99.90;;;;;;4935138;29;20174;-65
2021/09/16 11:14:37;;;;;;;17.20;15.50;;;18.30;99.90;;;;;;4934995;29;20481;-65
2021/09/16 11:17:04;;;;;;;19.40;17.57;;;18.40;99.90;;;;;;4935165;29;20444;-65
2021/09/16 11:19:31;;;;;;;18.00;15.33;;;18.50;99.90;;;;;;4935833;29;20950;-65
2021/09/16 11:22:05;;;;;;;16.27;14.67;;;18.70;99.90;;;;;;4934982;29;20879;-63
2021/09/16 11:24:33;;;;;;;16.63;14.30;;;18.70;99.90;;;;;;4934997;29;20421;-63
2021/09/16 11:26:59;;;;;;;16.57;14.83;;;18.80;99.90;;;;;;4934579;29;20425;-63
2021/09/16 11:29:24;;;;;;;16.70;15.20;;;19.00;99.90;;;;;;4937792;29;20445;-65
2021/09/16 11:32:03;;;;;;;15.07;13.53;;;19.20;99.90;;;;;;4934775;29;20209;-64
2021/09/16 11:34:28;;;;;;;17.10;15.50;;;19.50;99.90;;;;;;4934349;29;20669;-63
2021/09/16 11:37:07;;;;;;;16.27;14.50;;;19.70;99.90;;;;;;4934891;29;20437;-63
2021/09/16 11:39:32;;;;;;;15.73;14.17;;;19.50;99.90;;;;;;4937624;29;20205;-63
2021/09/16 11:42:16;;;;;;;14.43;13.03;;;19.40;99.90;;;;;;4933832;29;20436;-63
2021/09/16 11:44:59;;;;;;;15.47;14.07;;;19.40;99.90;;;;;;4934394;29;20173;-63
2021/09/16 11:47:26;;;;;;;16.63;15.20;;;19.60;99.90;;;;;;4950230;29;20555;-63
2021/09/16 11:49:51;;;;;;;17.30;15.53;;;19.90;99.90;;;;;;4953446;28;20459;-63
2021/09/16 11:52:19;;;;;;;16.00;14.50;;;20.10;99.90;;;;;;4953831;29;20420;-63
2021/09/16 11:55:15;;;;;;;17.30;15.67;;;20.20;99.90;;;;;;4947214;29;20188;-63
2021/09/16 11:58:06;;;;;;;18.67;16.70;;;20.40;99.90;;;;;;4933458;29;20441;-63
2021/09/16 12:00:44;;;;;;;19.17;17.17;;;20.60;99.90;;;;;;4934390;29;20488;-63
2021/09/16 12:03:12;;;;;;;20.23;18.03;;;20.80;99.90;;;;;;4934887;29;20488;-63
2021/09/16 12:05:45;;;;;;;19.97;17.30;;;20.50;99.90;;;;;;4938537;29;20429;-63
2021/09/16 12:08:18;;;;;;;20.37;18.20;;;20.00;99.90;;;;;;4938057;29;20468;-63
2021/09/16 12:10:50;;;;;;;19.03;17.20;;;19.70;99.90;;;;;;4931505;29;20548;-64
2021/09/16 12:13:20;;;;;;;21.33;19.07;;;19.50;99.90;;;;;;4938287;29;20736;-64
2021/09/16 12:15:50;;;;;;;21.93;17.83;;;19.40;99.90;;;;;;4946167;29;20440;-63
2021/09/16 12:18:16;;;;;;;24.13;18.47;;;19.30;99.90;;;;;;4921286;29;20473;-63
2021/09/16 12:20:45;;;;;;;21.17;19.13;;;19.20;99.90;;;;;;4955211;28;20455;-63
2021/09/16 12:23:12;;;;;;;19.93;17.83;;;19.10;99.90;;;;;;4957067;29;20424;-63
2021/09/16 12:25:53;;;;;;;20.37;18.50;;;18.90;99.90;;;;;;4941966;29;20445;-63
2021/09/16 12:28:19;;;;;;;22.20;20.10;;;18.80;99.90;;;;;;4952650;29;20464;-63
2021/09/16 12:30:45;;;;;;;20.33;18.33;;;18.60;99.90;;;;;;4939126;28;20452;-63
2021/09/16 12:33:29;;;;;;;21.33;19.10;;;18.60;99.90;;;;;;4938657;29;20556;-63
2021/09/16 12:36:14;;;;;;;22.43;19.90;;;18.40;99.90;;;;;;4939134;29;20425;-65
2021/09/16 12:38:46;;;;;;;22.87;19.53;;;18.40;99.90;;;;;;4940662;29;20490;-65
2021/09/16 12:41:33;;;;;;;25.87;21.47;;;18.30;99.90;;;;;;4953457;28;20485;-65
2021/09/16 12:44:02;;;;;;;23.90;21.40;;;18.20;99.90;;;;;;4943730;29;20440;-65
2021/09/16 12:46:37;;;;;;;26.03;20.70;;;18.10;99.90;;;;;;4950939;29;20550;-65